createdAt,value
2023-04-13T00:00:48.902Z,8.50
2023-04-13T00:03:17.571Z,8.50
2023-04-13T00:05:46.179Z,8.40
2023-04-13T00:08:13.247Z,8.40
2023-04-13T00:10:42.768Z,8.40
2023-04-13T00:13:10.614Z,8.40
2023-04-13T00:15:41.811Z,8.40
2023-04-13T00:18:10.353Z,8.40
2023-04-13T00:20:41.610Z,8.40
2023-04-13T00:23:08.424Z,8.30
2023-04-13T00:25:35.117Z,8.30
2023-04-13T00:28:03.604Z,8.30
2023-04-13T00:30:30.801Z,8.30
2023-04-13T00:32:57.627Z,8.30
2023-04-13T00:35:27.782Z,8.40
2023-04-13T00:37:54.713Z,8.20
2023-04-13T00:40:24.440Z,8.20
2023-04-13T00:42:51.716Z,8.30
2023-04-13T00:45:19.758Z,8.30
2023-04-13T00:47:48.513Z,8.40
2023-04-13T00:50:20.720Z,8.40
2023-04-13T00:52:48.603Z,8.50
2023-04-13T00:55:20.745Z,8.40
2023-04-13T00:57:50.077Z,8.40
2023-04-13T01:00:17.812Z,8.20
2023-04-13T01:02:45.300Z,8.40
2023-04-13T01:05:15.180Z,8.40
2023-04-13T01:07:45.428Z,8.40
2023-04-13T01:10:21.059Z,8.50
2023-04-13T01:13:10.132Z,8.50
2023-04-13T01:15:52.109Z,8.60
2023-04-13T01:18:20.446Z,8.50
2023-04-13T01:20:52.338Z,8.50
2023-04-13T01:23:50.704Z,8.50
2023-04-13T01:26:17.713Z,8.50
2023-04-13T01:28:47.330Z,8.50
2023-04-13T01:31:17.177Z,8.50
2023-04-13T01:33:45.282Z,8.50
2023-04-13T01:36:13.011Z,8.60
2023-04-13T01:38:39.812Z,8.60
2023-04-13T01:41:09.647Z,8.50
2023-04-13T01:43:40.360Z,8.50
2023-04-13T01:46:15.805Z,8.50
2023-04-13T01:48:55.529Z,8.60
2023-04-13T01:51:48.135Z,8.50
2023-04-13T01:54:20.764Z,8.50
2023-04-13T01:56:48.821Z,8.50
2023-04-13T01:59:16.737Z,8.40
2023-04-13T02:01:45.025Z,8.40
2023-04-13T02:04:13.843Z,8.40
2023-04-13T02:06:43.509Z,8.40
2023-04-13T02:09:11.036Z,8.50
2023-04-13T02:11:38.351Z,8.60
2023-04-13T02:14:06.719Z,8.50
2023-04-13T02:16:34.781Z,8.60
2023-04-13T02:19:01.770Z,8.60
2023-04-13T02:21:28.679Z,8.60
2023-04-13T02:23:55.421Z,8.70
2023-04-13T02:26:23.489Z,8.70
2023-04-13T02:28:51.302Z,8.60
2023-04-13T02:31:19.842Z,8.70
2023-04-13T02:33:47.105Z,8.70
2023-04-13T02:36:15.287Z,8.70
2023-04-13T02:38:49.744Z,8.70
2023-04-13T02:41:24.963Z,8.70
2023-04-13T02:43:52.165Z,8.60
2023-04-13T02:46:23.661Z,8.60
2023-04-13T02:48:56.582Z,8.60
2023-04-13T02:51:25.144Z,8.70
2023-04-13T02:53:52.498Z,8.70
2023-04-13T02:56:19.493Z,8.70
2023-04-13T02:58:50.539Z,8.70
2023-04-13T03:01:19.142Z,8.60
2023-04-13T03:03:46.325Z,8.60
2023-04-13T03:06:13.512Z,8.50
2023-04-13T03:08:46.194Z,8.50
2023-04-13T03:11:26.427Z,8.50
2023-04-13T03:14:20.847Z,8.40
2023-04-13T03:16:51.776Z,8.40
2023-04-13T03:19:21.878Z,8.30
2023-04-13T03:21:49.986Z,8.40
2023-04-13T03:24:20.262Z,8.30
2023-04-13T03:26:48.330Z,8.30
2023-04-13T03:29:21.062Z,8.30
2023-04-13T03:31:47.903Z,8.30
2023-04-13T03:34:15.299Z,8.30
2023-04-13T03:36:43.673Z,8.30
2023-04-13T03:39:10.878Z,8.30
2023-04-13T03:41:38.707Z,8.30
2023-04-13T03:44:08.566Z,8.30
2023-04-13T03:46:38.399Z,8.30
2023-04-13T03:49:16.541Z,8.20
2023-04-13T03:51:43.314Z,8.20
2023-04-13T03:54:10.040Z,8.10
2023-04-13T03:56:36.967Z,8.00
2023-04-13T03:59:04.305Z,8.00
2023-04-13T04:01:31.597Z,7.90
2023-04-13T04:03:58.749Z,7.90
2023-04-13T04:06:28.279Z,7.80
2023-04-13T04:09:07.197Z,7.80
2023-04-13T04:11:40.648Z,7.70
2023-04-13T04:14:09.324Z,7.70
2023-04-13T04:16:36.769Z,7.80
2023-04-13T04:19:09.754Z,7.70
2023-04-13T04:21:36.863Z,7.70
2023-04-13T04:24:22.446Z,7.60
2023-04-13T04:26:54.900Z,7.60
2023-04-13T04:29:33.943Z,7.60
2023-04-13T04:32:10.557Z,7.60
2023-04-13T04:34:38.747Z,7.60
2023-04-13T04:37:13.991Z,7.60
2023-04-13T04:39:48.013Z,7.70
2023-04-13T04:42:18.590Z,7.70
2023-04-13T04:44:49.860Z,7.70
2023-04-13T04:47:19.499Z,7.70
2023-04-13T04:50:10.010Z,7.80
2023-04-13T04:52:40.151Z,7.90
2023-04-13T04:55:07.825Z,8.00
2023-04-13T04:57:36.777Z,8.00
2023-04-13T05:00:10.412Z,8.00
2023-04-13T05:02:39.216Z,8.00
2023-04-13T05:05:10.332Z,8.10
2023-04-13T05:07:38.281Z,8.10
2023-04-13T05:10:12.397Z,8.00
2023-04-13T05:12:44.959Z,8.00
2023-04-13T05:15:12.411Z,7.90
2023-04-13T05:17:39.160Z,7.90
2023-04-13T05:20:07.175Z,7.90
2023-04-13T05:22:58.728Z,8.00
2023-04-13T05:25:25.723Z,8.00
2023-04-13T05:27:52.920Z,8.10
2023-04-13T05:30:20.255Z,8.10
2023-04-13T05:32:47.935Z,8.10
2023-04-13T05:35:14.877Z,8.10
2023-04-13T05:37:44.533Z,8.10
2023-04-13T05:40:17.567Z,8.20
2023-04-13T05:42:44.459Z,8.20
2023-04-13T05:45:17.121Z,8.20
2023-04-13T05:47:58.328Z,8.20
2023-04-13T05:50:25.482Z,8.10
2023-04-13T05:52:52.207Z,8.10
2023-04-13T05:55:20.003Z,8.20
2023-04-13T05:57:53.818Z,8.20
2023-04-13T06:00:21.547Z,8.30
2023-04-13T06:03:01.202Z,8.30
2023-04-13T06:05:29.650Z,8.30
2023-04-13T06:07:57.044Z,8.40
2023-04-13T06:10:23.787Z,8.40
2023-04-13T06:12:52.368Z,8.50
2023-04-13T06:15:20.619Z,8.50
2023-04-13T06:17:50.677Z,8.60
2023-04-13T06:20:17.471Z,8.70
2023-04-13T06:22:44.247Z,8.70
2023-04-13T06:25:13.448Z,8.80
2023-04-13T06:27:43.405Z,8.90
2023-04-13T06:30:18.268Z,9.00
2023-04-13T06:32:46.840Z,9.00
2023-04-13T06:35:17.356Z,9.00
2023-04-13T06:37:46.428Z,9.00
2023-04-13T06:40:20.960Z,9.10
2023-04-13T06:42:59.217Z,9.10
2023-04-13T06:45:33.603Z,9.20
2023-04-13T06:48:04.493Z,9.30
2023-04-13T06:50:32.792Z,9.30
2023-04-13T06:53:03.217Z,9.40
2023-04-13T06:55:30.281Z,9.40
2023-04-13T06:57:57.048Z,9.50
2023-04-13T07:00:29.429Z,9.60
2023-04-13T07:02:58.702Z,9.50
2023-04-13T07:05:26.106Z,9.60
2023-04-13T07:07:55.723Z,9.70
2023-04-13T07:10:23.208Z,9.80
2023-04-13T07:12:51.231Z,9.90
2023-04-13T07:15:21.629Z,9.90
2023-04-13T07:17:49.289Z,10.00
2023-04-13T07:20:17.520Z,10.00
2023-04-13T07:22:47.175Z,10.00
2023-04-13T07:25:14.189Z,10.10
2023-04-13T07:27:41.421Z,10.20
2023-04-13T07:30:09.547Z,10.30
2023-04-13T07:32:41.540Z,10.40
2023-04-13T07:35:09.560Z,10.30
2023-04-13T07:37:38.592Z,10.40
2023-04-13T07:40:08.952Z,10.50
2023-04-13T07:42:36.616Z,10.60
2023-04-13T07:45:03.690Z,10.50
2023-04-13T07:47:32.355Z,10.50
2023-04-13T07:50:06.122Z,10.50
2023-04-13T07:52:33.412Z,10.60
2023-04-13T07:55:02.452Z,10.70
2023-04-13T07:57:32.219Z,10.80
2023-04-13T08:00:06.842Z,10.90
2023-04-13T08:02:41.281Z,10.80
2023-04-13T08:05:12.472Z,10.80
2023-04-13T08:07:39.778Z,10.90
2023-04-13T08:10:08.209Z,10.90
2023-04-13T08:12:34.944Z,10.90
2023-04-13T08:15:01.798Z,10.90
2023-04-13T08:17:29.076Z,10.90
2023-04-13T08:19:55.863Z,10.90
2023-04-13T08:22:23.131Z,11.00
2023-04-13T08:24:49.911Z,11.10
2023-04-13T08:27:16.718Z,11.30
2023-04-13T08:29:46.478Z,11.10
2023-04-13T08:32:14.052Z,11.20
2023-04-13T08:34:41.976Z,11.00
2023-04-13T08:37:08.733Z,11.20
2023-04-13T08:39:37.569Z,11.10
2023-04-13T08:42:05.166Z,11.10
2023-04-13T08:44:40.193Z,11.20
2023-04-13T08:47:10.939Z,11.40
2023-04-13T08:49:40.728Z,11.50
2023-04-13T08:52:16.703Z,11.40
2023-04-13T08:54:47.159Z,11.40
2023-04-13T08:57:23.343Z,11.50
2023-04-13T08:59:52.394Z,11.70
2023-04-13T09:02:26.074Z,11.90
2023-04-13T09:05:05.815Z,12.10
2023-04-13T09:07:36.566Z,11.90
2023-04-13T09:10:09.816Z,12.00
2023-04-13T09:12:42.131Z,12.10
2023-04-13T09:15:13.567Z,12.10
2023-04-13T09:17:48.790Z,11.90
2023-04-13T09:20:22.180Z,11.70
2023-04-13T09:22:50.001Z,11.80
2023-04-13T09:25:24.152Z,11.90
2023-04-13T09:27:52.743Z,11.80
2023-04-13T09:30:24.361Z,11.80
2023-04-13T09:33:07.803Z,11.80
2023-04-13T09:35:35.547Z,11.80
2023-04-13T09:38:02.993Z,12.10
2023-04-13T09:40:29.876Z,12.40
2023-04-13T09:43:07.817Z,12.60
2023-04-13T09:45:39.153Z,12.90
2023-04-13T09:48:17.411Z,12.90
2023-04-13T09:50:44.661Z,12.90
2023-04-13T09:53:12.428Z,13.40
2023-04-13T09:55:39.362Z,13.80
2023-04-13T09:58:13.641Z,13.90
2023-04-13T10:00:42.502Z,13.70
2023-04-13T10:03:14.701Z,13.40
2023-04-13T10:05:58.069Z,13.20
2023-04-13T10:08:37.541Z,13.00
2023-04-13T10:11:12.163Z,12.90
2023-04-13T10:13:55.829Z,12.90
2023-04-13T10:16:50.134Z,12.50
2023-04-13T10:19:32.123Z,12.60
2023-04-13T10:21:59.890Z,13.00
2023-04-13T10:24:28.788Z,13.40
2023-04-13T10:26:56.266Z,13.70
2023-04-13T10:29:30.591Z,13.80
2023-04-13T10:32:03.462Z,14.00
2023-04-13T10:34:32.821Z,14.30
2023-04-13T10:37:03.868Z,14.50
2023-04-13T10:39:33.502Z,14.20
2023-04-13T10:42:08.817Z,14.10
2023-04-13T10:44:47.161Z,13.90
2023-04-13T10:47:16.479Z,14.00
2023-04-13T10:49:44.446Z,14.10
2023-04-13T10:52:11.753Z,14.00
2023-04-13T10:54:40.425Z,14.10
2023-04-13T10:57:09.675Z,13.70
2023-04-13T10:59:55.415Z,13.90
2023-04-13T11:02:34.252Z,13.60
2023-04-13T11:05:01.498Z,13.60
2023-04-13T11:07:28.982Z,13.60
2023-04-13T11:10:03.683Z,13.40
2023-04-13T11:12:31.124Z,13.10
2023-04-13T11:14:57.944Z,12.90
2023-04-13T11:17:24.825Z,13.00
2023-04-13T11:19:53.411Z,13.30
2023-04-13T11:22:27.838Z,13.50
2023-04-13T11:25:09.044Z,13.80
2023-04-13T11:27:37.651Z,14.20
2023-04-13T11:30:07.171Z,14.60
2023-04-13T11:32:34.515Z,14.80
2023-04-13T11:35:09.319Z,14.90
2023-04-13T11:37:41.299Z,15.00
2023-04-13T11:40:16.935Z,15.30
2023-04-13T11:42:51.526Z,15.20
2023-04-13T11:45:21.680Z,15.00
2023-04-13T11:47:50.590Z,14.90
2023-04-13T11:50:18.541Z,14.90
2023-04-13T11:52:47.035Z,15.20
2023-04-13T11:55:23.154Z,15.00
2023-04-13T11:57:54.520Z,14.90
2023-04-13T12:00:27.155Z,14.80
2023-04-13T12:03:02.002Z,14.80
2023-04-13T12:05:32.475Z,14.70
2023-04-13T12:08:02.244Z,14.80
2023-04-13T12:10:39.203Z,15.00
2023-04-13T12:16:02.355Z,15.10
2023-04-13T12:18:39.902Z,15.20
2023-04-13T12:21:07.096Z,15.10
2023-04-13T12:23:33.854Z,15.20
2023-04-13T12:26:31.104Z,15.30
2023-04-13T12:28:56.892Z,15.20
2023-04-13T12:31:24.346Z,15.20
2023-04-13T12:33:51.588Z,15.50
2023-04-13T12:36:18.373Z,15.30
2023-04-13T12:38:45.778Z,15.20
2023-04-13T12:41:12.957Z,15.20
2023-04-13T12:43:39.670Z,15.30
2023-04-13T12:46:06.418Z,15.40
2023-04-13T12:48:33.162Z,15.20
2023-04-13T12:51:00.224Z,15.20
2023-04-13T12:53:26.958Z,15.20
2023-04-13T12:55:53.686Z,15.40
2023-04-13T12:58:21.621Z,15.50
2023-04-13T13:00:48.527Z,15.60
2023-04-13T13:03:15.708Z,15.80
2023-04-13T13:05:43.351Z,15.90
2023-04-13T13:08:10.174Z,16.00
2023-04-13T13:10:37.607Z,16.00
2023-04-13T13:13:06.072Z,16.10
2023-04-13T13:15:33.283Z,16.00
2023-04-13T13:18:03.072Z,15.90
2023-04-13T13:20:30.847Z,15.90
2023-04-13T13:22:57.773Z,15.90
2023-04-13T13:25:24.740Z,16.10
2023-04-13T13:28:13.150Z,16.10
2023-04-13T13:30:45.133Z,16.10
2023-04-13T13:33:12.467Z,16.00
2023-04-13T13:35:39.340Z,15.90
2023-04-13T13:38:06.018Z,15.80
2023-04-13T13:40:32.945Z,15.80
2023-04-13T13:42:59.719Z,16.20
2023-04-13T13:45:27.430Z,16.70
2023-04-13T13:47:58.568Z,16.70
2023-04-13T13:50:37.307Z,16.60
2023-04-13T13:53:05.230Z,16.20
2023-04-13T13:55:40.237Z,15.90
2023-04-13T13:58:07.615Z,15.60
2023-04-13T14:00:34.532Z,15.70
2023-04-13T14:03:01.536Z,15.80
2023-04-13T14:05:28.420Z,16.00
2023-04-13T14:07:55.324Z,16.20
2023-04-13T14:10:22.364Z,16.20
2023-04-13T14:12:50.813Z,16.20
2023-04-13T14:15:18.088Z,16.20
2023-04-13T14:17:52.480Z,16.30
2023-04-13T14:20:22.580Z,16.40
2023-04-13T14:22:49.425Z,16.50
2023-04-13T14:25:16.258Z,17.30
2023-04-13T14:27:43.156Z,18.70
2023-04-13T14:30:10.636Z,20.20
2023-04-13T14:32:37.505Z,20.80
2023-04-13T14:35:04.617Z,20.40
2023-04-13T14:37:31.320Z,19.70
2023-04-13T14:39:58.111Z,19.30
2023-04-13T14:42:25.006Z,18.80
2023-04-13T14:44:51.995Z,18.60
2023-04-13T14:47:19.501Z,18.30
2023-04-13T14:49:47.365Z,18.40
2023-04-13T14:52:14.931Z,18.50
2023-04-13T14:54:45.822Z,18.00
2023-04-13T14:57:12.555Z,17.40
2023-04-13T14:59:39.377Z,16.80
2023-04-13T15:02:08.779Z,16.60
2023-04-13T15:04:37.245Z,16.70
2023-04-13T15:07:04.419Z,16.80
2023-04-13T15:09:32.433Z,16.90
2023-04-13T15:11:59.225Z,17.00
2023-04-13T15:14:26.172Z,16.80
2023-04-13T15:16:53.044Z,16.70
2023-04-13T15:19:20.372Z,16.70
2023-04-13T15:21:47.526Z,16.60
2023-04-13T15:24:14.239Z,16.60
2023-04-13T15:26:42.037Z,16.60
2023-04-13T15:29:09.637Z,16.70
2023-04-13T15:31:38.312Z,16.80
2023-04-13T15:34:08.428Z,17.10
2023-04-13T15:36:36.407Z,18.20
2023-04-13T15:39:04.479Z,19.40
2023-04-13T15:41:31.823Z,20.90
2023-04-13T15:44:03.192Z,22.20
2023-04-13T15:46:30.214Z,22.50
2023-04-13T15:48:57.121Z,21.20
2023-04-13T15:51:24.051Z,19.80
2023-04-13T15:53:51.046Z,18.70
2023-04-13T15:56:21.192Z,17.90
2023-04-13T16:01:16.974Z,17.20
2023-04-13T16:03:45.121Z,16.50
2023-04-13T16:06:12.099Z,16.30
2023-04-13T16:08:39.136Z,16.00
2023-04-13T16:11:06.559Z,15.60
2023-04-13T16:18:45.108Z,15.40
2023-04-13T16:21:12.438Z,15.10
2023-04-13T16:23:39.475Z,15.20
2023-04-13T16:26:06.408Z,15.30
2023-04-13T16:28:34.410Z,15.30
2023-04-13T16:31:01.447Z,15.30
2023-04-13T16:33:29.668Z,15.30
2023-04-13T16:35:56.419Z,15.30
2023-04-13T16:38:23.435Z,15.40
2023-04-13T16:40:50.427Z,15.20
2023-04-13T16:43:17.250Z,15.00
2023-04-13T16:45:44.211Z,14.90
2023-04-13T16:48:15.254Z,15.00
2023-04-13T16:50:42.240Z,14.70
2023-04-13T16:53:09.018Z,14.70
2023-04-13T16:55:35.833Z,14.60
2023-04-13T16:58:02.701Z,14.60
2023-04-13T17:00:30.954Z,14.50
2023-04-13T17:02:57.840Z,14.50
2023-04-13T17:05:28.417Z,14.50
2023-04-13T17:07:57.942Z,14.60
2023-04-13T17:10:24.824Z,14.60
2023-04-13T17:12:51.573Z,14.60
2023-04-13T17:15:21.506Z,14.60
2023-04-13T17:17:48.433Z,14.50
2023-04-13T17:20:17.005Z,14.50
2023-04-13T17:22:45.096Z,14.30
2023-04-13T17:25:12.029Z,14.20
2023-04-13T17:27:38.903Z,14.20
2023-04-13T17:30:06.450Z,14.10
2023-04-13T17:32:33.534Z,14.00
2023-04-13T17:35:00.936Z,13.80
2023-04-13T17:37:29.381Z,13.70
2023-04-13T17:39:56.107Z,13.60
2023-04-13T17:42:23.044Z,13.50
2023-04-13T17:44:50.106Z,13.50
2023-04-13T17:47:17.531Z,13.40
2023-04-13T17:49:44.716Z,13.20
2023-04-13T17:52:11.512Z,13.20
2023-04-13T17:54:41.319Z,13.10
2023-04-13T17:57:08.140Z,13.00
2023-04-13T17:59:34.996Z,12.90
2023-04-13T18:02:01.976Z,12.90
2023-04-13T18:04:34.519Z,12.80
2023-04-13T18:07:03.660Z,12.70
2023-04-13T18:09:31.207Z,12.70
2023-04-13T18:11:58.234Z,12.70
2023-04-13T18:14:24.987Z,12.60
2023-04-13T18:16:51.839Z,12.50
2023-04-13T18:19:18.709Z,12.50
2023-04-13T18:21:45.577Z,12.40
2023-04-13T18:24:12.443Z,12.40
2023-04-13T18:26:39.724Z,12.30
2023-04-13T18:29:07.298Z,12.30
2023-04-13T18:31:34.076Z,12.30
2023-04-13T18:34:01.088Z,12.30
2023-04-13T18:36:28.262Z,12.20
2023-04-13T18:38:55.123Z,12.20
2023-04-13T18:41:22.236Z,12.20
2023-04-13T18:43:49.273Z,12.20
2023-04-13T18:46:16.352Z,12.10
2023-04-13T18:48:43.030Z,12.10
2023-04-13T18:51:10.434Z,12.00
2023-04-13T18:53:37.242Z,11.90
2023-04-13T18:56:03.971Z,11.80
2023-04-13T18:58:30.770Z,11.70
2023-04-13T19:00:58.497Z,11.60
2023-04-13T19:03:25.564Z,11.50
2023-04-13T19:05:52.479Z,11.40
2023-04-13T19:08:19.802Z,11.30
2023-04-13T19:10:46.682Z,11.20
2023-04-13T19:13:15.423Z,11.10
2023-04-13T19:15:42.266Z,11.00
2023-04-13T19:18:11.213Z,10.90
2023-04-13T19:20:38.100Z,10.80
2023-04-13T19:23:04.893Z,10.90
2023-04-13T19:25:31.671Z,10.90
2023-04-13T19:27:58.431Z,10.90
2023-04-13T19:30:25.471Z,10.80
2023-04-13T19:32:54.253Z,10.70
2023-04-13T19:35:24.277Z,10.70
2023-04-13T19:37:51.107Z,10.60
2023-04-13T19:40:18.313Z,10.60
2023-04-13T19:42:46.307Z,10.60
2023-04-13T19:45:14.429Z,10.60
2023-04-13T19:47:42.254Z,10.50
2023-04-13T19:50:11.375Z,10.50
2023-04-13T19:52:38.976Z,10.50
2023-04-13T19:55:08.443Z,10.40
2023-04-13T19:57:42.371Z,10.40
2023-04-13T20:00:17.238Z,10.30
2023-04-13T20:02:46.874Z,10.40
2023-04-13T20:05:14.792Z,10.40
2023-04-13T20:07:41.862Z,10.30
2023-04-13T20:10:11.410Z,10.30
2023-04-13T20:12:38.526Z,10.20
2023-04-13T20:15:06.183Z,10.20
2023-04-13T20:17:32.926Z,10.20
2023-04-13T20:20:00.050Z,10.20
2023-04-13T20:22:26.754Z,10.20
2023-04-13T20:24:53.485Z,10.20
2023-04-13T20:27:23.485Z,10.20
2023-04-13T20:29:51.875Z,10.20
2023-04-13T20:32:18.734Z,10.20
2023-04-13T20:34:45.572Z,10.20
2023-04-13T20:37:14.308Z,10.10
2023-04-13T20:39:49.897Z,10.10
2023-04-13T20:42:18.224Z,10.00
2023-04-13T20:44:46.199Z,10.00
2023-04-13T20:47:13.720Z,9.90
2023-04-13T20:49:43.717Z,9.90
2023-04-13T20:52:13.861Z,9.90
2023-04-13T20:54:41.424Z,9.80
2023-04-13T20:57:09.375Z,9.80
2023-04-13T20:59:39.952Z,9.80
2023-04-13T21:02:07.820Z,9.80
2023-04-13T21:04:34.533Z,9.80
2023-04-13T21:07:02.337Z,9.80
2023-04-13T21:09:30.524Z,9.70
2023-04-13T21:11:57.915Z,9.70
2023-04-13T21:14:25.392Z,9.60
2023-04-13T21:16:52.485Z,9.60
2023-04-13T21:19:19.594Z,9.60
2023-04-13T21:21:46.506Z,9.60
2023-04-13T21:24:13.399Z,9.60
2023-04-13T21:26:40.693Z,9.50
2023-04-13T21:29:08.954Z,9.60
2023-04-13T21:31:35.846Z,9.60
2023-04-13T21:34:03.845Z,9.60
2023-04-13T21:39:02.688Z,9.50
2023-04-13T21:41:29.913Z,9.40
2023-04-13T21:43:56.954Z,9.40
2023-04-13T21:46:28.144Z,9.40
2023-04-13T21:48:55.366Z,9.30
2023-04-13T21:51:22.248Z,9.30
2023-04-13T21:53:49.135Z,9.30
2023-04-13T21:56:16.114Z,9.30
2023-04-13T21:58:44.905Z,9.20
2023-04-13T22:01:13.165Z,9.20
2023-04-13T22:03:43.032Z,9.20
2023-04-13T22:06:11.136Z,9.20
2023-04-13T22:08:38.736Z,9.20
2023-04-13T22:11:06.392Z,9.10
2023-04-13T22:13:33.205Z,9.10
2023-04-13T22:16:00.183Z,9.10
2023-04-13T22:18:27.657Z,9.00
2023-04-13T22:20:54.405Z,9.00
2023-04-13T22:23:21.392Z,9.00
2023-04-13T22:26:00.633Z,9.00
2023-04-13T22:28:31.763Z,8.90
2023-04-13T22:31:06.818Z,8.90
2023-04-13T22:33:36.088Z,8.90
2023-04-13T22:36:06.826Z,8.90
2023-04-13T22:38:33.549Z,8.90
2023-04-13T22:41:06.619Z,8.90
2023-04-13T22:43:33.387Z,8.90
2023-04-13T22:46:00.774Z,8.90
2023-04-13T22:48:28.656Z,8.90
2023-04-13T22:50:56.197Z,9.00
2023-04-13T22:53:23.029Z,8.90
2023-04-13T22:55:49.734Z,8.90
2023-04-13T22:58:17.953Z,8.90
2023-04-13T23:00:45.814Z,8.90
2023-04-13T23:03:13.392Z,9.00
2023-04-13T23:05:40.388Z,9.00
2023-04-13T23:08:07.062Z,8.90
2023-04-13T23:10:33.899Z,8.90
2023-04-13T23:13:01.007Z,8.80
2023-04-13T23:15:27.765Z,8.80
2023-04-13T23:17:55.681Z,8.70
2023-04-13T23:20:23.685Z,8.70
2023-04-13T23:22:50.559Z,8.70
2023-04-13T23:25:17.407Z,8.70
2023-04-13T23:27:44.427Z,8.60
2023-04-13T23:30:11.632Z,8.60
2023-04-13T23:32:38.552Z,8.50
2023-04-13T23:35:06.048Z,8.50
2023-04-13T23:37:32.808Z,8.50
2023-04-13T23:39:59.803Z,8.40
2023-04-13T23:42:26.501Z,8.40
2023-04-13T23:44:53.857Z,8.40
2023-04-13T23:47:21.150Z,8.40
2023-04-13T23:49:47.995Z,8.40
2023-04-13T23:52:14.756Z,8.30
2023-04-13T23:54:41.563Z,8.30
2023-04-13T23:57:09.662Z,8.30
2023-04-13T23:59:36.498Z,8.30
